Spirit of New Zealand — ZMSV — position and weather

sailwx.info

Track history (hours):
 
Tides and Currents Weather Stations Pressure Air Temp Water Temp Dewpoint Dewpoint Depression Visibility Wind Speed Wind Dir Waves Ship Positions

Spirit of New Zealand

Last reported at 2017-Mar-24 22:06 UTC. Time now 2017-Mar-26 07:14 UTC.
Position S 36°24' E 175°17'.

Length 45 m; draft 4.1 m.

Type: Passenger vessel. MMSI: 512201000.

Date/timePositionNaut miles runAvg speedWind from/ knotsBaromVisibWave heightAir tempDewpointWater temp
2017-Mar-24 22:06S 36°24' E 175°17'6 8.7
2017-Mar-24 21:27S 36°19' E 175°16'  
2017-Mar-21 02:33S 36°16' E 175°06'7 7.1
2017-Mar-21 01:33S 36°20' E 174°58'8 8.2
2017-Mar-21 00:33S 36°23' E 174°49'3 0.6
2017-Mar-20 19:23S 36°25' E 174°46'0 0.6
2017-Mar-20 18:33S 36°25' E 174°46'0 0.0
2017-Mar-20 09:21S 36°25' E 174°46'0 0.0
2017-Mar-20 08:21S 36°25' E 174°46'4 0.6
2017-Mar-20 02:33S 36°28' E 174°47'3 3.4
2017-Mar-20 01:33S 36°32' E 174°45'4 3.7
2017-Mar-20 00:32S 36°35' E 174°44'0 0.0
2017-Mar-19 23:32S 36°35' E 174°44'0 0.0
2017-Mar-19 22:32S 36°35' E 174°44'0 0.0
2017-Mar-19 21:32S 36°35' E 174°44'4 3.9
2017-Mar-19 20:33S 36°32' E 174°45'1 0.2
2017-Mar-19 12:29S 36°31' E 174°44'0 0.0
2017-Mar-19 11:29S 36°31' E 174°44'0 0.0
2017-Mar-19 10:29S 36°30' E 174°44'0 0.0
2017-Mar-19 09:29S 36°30' E 174°44'0 0.0
2017-Mar-19 08:29S 36°31' E 174°44'0 0.0
2017-Mar-19 07:29S 36°31' E 174°44'2 0.6
2017-Mar-19 03:33S 36°32' E 174°46'3 2.6
2017-Mar-19 02:33S 36°33' E 174°49'3 2.9
2017-Mar-19 01:33S 36°35' E 174°51'8 7.4
2017-Mar-19 00:32S 36°42' E 174°50'8 0.3
2017-Mar-17 22:33S 36°50' E 174°46'0 0.1
2017-Mar-17 20:33S 36°50' E 174°46'1 0.2
2017-Mar-17 18:04S 36°51' E 174°46'1 1.3
2017-Mar-17 17:33S 36°50' E 174°46'0 0.2
2017-Mar-17 16:29S 36°50' E 174°46'0 0.0
2017-Mar-17 15:29S 36°50' E 174°46'0 0.0
2017-Mar-17 14:29S 36°50' E 174°46'0 0.0
2017-Mar-17 13:29S 36°50' E 174°46'0 0.0
2017-Mar-17 12:29S 36°50' E 174°46'0 0.0
2017-Mar-17 05:23S 36°50' E 174°46'0 0.0
2017-Mar-17 04:23S 36°50' E 174°46'1 0.6
2017-Mar-17 03:30S 36°50' E 174°46'10 7.5
2017-Mar-17 02:14S 36°47' E 174°57'15 0.7
2017-Mar-16 03:23S 36°38' E 175°12'  
Track history (hours):
 
Tides and Currents Weather Stations Pressure Air Temp Water Temp Dewpoint Dewpoint Depression Visibility Wind Speed Wind Dir Waves Ship Positions

Spirit of New Zealand

Last reported at 2017-Mar-24 22:06 UTC. Time now 2017-Mar-26 07:14 UTC.
Position S 36°24' E 175°17'.

Length 45 m; draft 4.1 m.

Type: Passenger vessel. MMSI: 512201000.

Date/timePositionNaut miles runAvg speedWind from/ knotsBaromVisibWave heightAir tempDewpointWater temp
2017-Mar-24 22:06S 36°24' E 175°17'6 8.7
2017-Mar-24 21:27S 36°19' E 175°16'  
2017-Mar-21 02:33S 36°16' E 175°06'7 7.1
2017-Mar-21 01:33S 36°20' E 174°58'8 8.2
2017-Mar-21 00:33S 36°23' E 174°49'3 0.6
2017-Mar-20 19:23S 36°25' E 174°46'0 0.6
2017-Mar-20 18:33S 36°25' E 174°46'0 0.0
2017-Mar-20 09:21S 36°25' E 174°46'0 0.0
2017-Mar-20 08:21S 36°25' E 174°46'4 0.6
2017-Mar-20 02:33S 36°28' E 174°47'3 3.4
2017-Mar-20 01:33S 36°32' E 174°45'4 3.7
2017-Mar-20 00:32S 36°35' E 174°44'0 0.0
2017-Mar-19 23:32S 36°35' E 174°44'0 0.0
2017-Mar-19 22:32S 36°35' E 174°44'0 0.0
2017-Mar-19 21:32S 36°35' E 174°44'4 3.9
2017-Mar-19 20:33S 36°32' E 174°45'1 0.2
2017-Mar-19 12:29S 36°31' E 174°44'0 0.0
2017-Mar-19 11:29S 36°31' E 174°44'0 0.0
2017-Mar-19 10:29S 36°30' E 174°44'0 0.0
2017-Mar-19 09:29S 36°30' E 174°44'0 0.0
2017-Mar-19 08:29S 36°31' E 174°44'0 0.0
2017-Mar-19 07:29S 36°31' E 174°44'2 0.6
2017-Mar-19 03:33S 36°32' E 174°46'3 2.6
2017-Mar-19 02:33S 36°33' E 174°49'3 2.9
2017-Mar-19 01:33S 36°35' E 174°51'8 7.4
2017-Mar-19 00:32S 36°42' E 174°50'8 0.3
2017-Mar-17 22:33S 36°50' E 174°46'0 0.1
2017-Mar-17 20:33S 36°50' E 174°46'1 0.2
2017-Mar-17 18:04S 36°51' E 174°46'1 1.3
2017-Mar-17 17:33S 36°50' E 174°46'0 0.2
2017-Mar-17 16:29S 36°50' E 174°46'0 0.0
2017-Mar-17 15:29S 36°50' E 174°46'0 0.0
2017-Mar-17 14:29S 36°50' E 174°46'0 0.0
2017-Mar-17 13:29S 36°50' E 174°46'0 0.0
2017-Mar-17 12:29S 36°50' E 174°46'0 0.0
2017-Mar-17 05:23S 36°50' E 174°46'0 0.0
2017-Mar-17 04:23S 36°50' E 174°46'1 0.6
2017-Mar-17 03:30S 36°50' E 174°46'10 7.5
2017-Mar-17 02:14S 36°47' E 174°57'15 0.7
2017-Mar-16 03:23S 36°38' E 175°12'  

Dump ship's entire track history